Terminal Aerodrome Forecast
Issued by NWS Jacksonville, FL

Home | Current Version | Previous Version | Text Only | Print | Product List | Glossary On
Versions: 1 2 3 4 5 6 7 8 9 10 11 12 13 14 15 16 17 18
000
FTUS42 KJAX 251120
TAFSSI
TAF
KSSI 251120Z 2512/2612 03007KT P6SM SCT030
     FM251400 06014G20KT P6SM VCSH SCT030 BKN045
     FM251900 07012KT P6SM FEW030 SCT050
     FM260100 09007KT P6SM FEW250=

USA.gov is the U.S. government's official web portal to all federal, state and local government web resources and services.